Time;durP1;ratioP1;P1;durP2;ratioP2;P2;SDS_P1;SDS_P2;PMS_P1;PMS_P2;Temp;Humidity;BMP_temperature;BMP_pressure;BME280_temperature;BME280_humidity;BME280_pressure;Samples;Min_cycle;Max_cycle;Signal;HPM_P1;HPM_P2
2021/12/09 00:02:03;;;;;;;35.72;23.85;;;;;;;1.42;93.57;98801.34;6181169;23;20024;-89
2021/12/09 00:04:31;;;;;;;35.03;22.60;;;;;;;1.44;93.54;98813.81;6156413;23;20017;-90
2021/12/09 00:06:58;;;;;;;36.10;23.02;;;;;;;1.48;94.01;98829.00;6157338;23;20439;-89
2021/12/09 00:09:24;;;;;;;35.70;22.98;;;;;;;1.50;94.16;98817.69;6181869;23;20040;-90
2021/12/09 00:11:50;;;;;;;35.45;23.67;;;;;;;1.46;94.69;98816.94;6181166;23;20443;-90
2021/12/09 00:14:24;;;;;;;35.20;22.55;;;;;;;1.49;93.70;98808.72;6132240;23;20009;-89
2021/12/09 00:16:52;;;;;;;34.85;22.40;;;;;;;1.46;93.99;98831.34;6181846;23;20020;-90
2021/12/09 00:19:17;;;;;;;37.45;24.00;;;;;;;1.44;94.61;98814.59;6132283;23;20005;-90
2021/12/09 00:21:43;;;;;;;35.63;23.20;;;;;;;1.42;94.04;98801.34;6156321;23;20013;-89
2021/12/09 00:24:09;;;;;;;37.67;23.73;;;;;;;1.51;93.93;98803.59;6156336;23;20005;-90
2021/12/09 00:26:35;;;;;;;35.63;22.70;;;;;;;1.46;93.64;98787.63;6131858;23;20432;-87
2021/12/09 00:29:00;;;;;;;36.10;23.02;;;;;;;1.48;93.60;98789.97;6156459;23;20051;-88
2021/12/09 00:31:26;;;;;;;37.53;23.27;;;;;;;1.55;93.00;98782.47;6155580;23;20028;-88
2021/12/09 00:33:54;;;;;;;36.35;22.85;;;;;;;1.49;92.90;98751.31;6181471;23;20321;-88
2021/12/09 00:36:27;;;;;;;34.50;22.27;;;;;;;1.53;91.87;98784.06;6132319;23;20024;-87
2021/12/09 00:38:57;;;;;;;34.73;21.93;;;;;;;1.54;91.16;98797.31;6133640;23;20351;-88
2021/12/09 00:41:23;;;;;;;34.13;22.20;;;;;;;1.56;91.25;98784.03;6156507;23;20092;-88
2021/12/09 00:43:49;;;;;;;34.95;21.67;;;;;;;1.50;92.21;98812.97;6156225;23;20520;-90
2021/12/09 00:46:15;;;;;;;35.85;21.98;;;;;;;1.58;92.07;98828.09;6156265;23;20095;-88
2021/12/09 00:48:41;;;;;;;34.60;22.27;;;;;;;1.52;92.10;98805.16;6155801;23;20080;-88
2021/12/09 00:51:07;;;;;;;34.75;22.45;;;;;;;1.64;92.02;98784.72;6180995;23;20036;-88
2021/12/09 00:53:33;;;;;;;34.13;21.85;;;;;;;1.65;92.01;98757.00;6155217;23;20324;-88
2021/12/09 00:56:00;;;;;;;34.33;21.63;;;;;;;1.56;91.20;98745.75;6131839;23;20025;-88
2021/12/09 00:58:25;;;;;;;35.55;22.02;;;;;;;1.56;90.97;98772.31;6180990;23;20059;-88
2021/12/09 01:00:51;;;;;;;35.97;22.23;;;;;;;1.53;91.50;98754.00;6131134;23;20008;-88
2021/12/09 01:03:17;;;;;;;34.97;22.45;;;;;;;1.59;91.45;98738.69;6180918;23;20071;-90
2021/12/09 01:05:46;;;;;;;33.70;21.75;;;;;;;1.65;91.31;98746.06;6180877;23;20450;-90
2021/12/09 01:08:12;;;;;;;35.25;22.58;;;;;;;1.66;90.48;98776.91;6132029;23;20013;-89
2021/12/09 01:10:38;;;;;;;33.38;21.83;;;;;;;1.69;90.33;98776.09;6155722;23;20020;-90
2021/12/09 01:13:04;;;;;;;34.60;21.75;;;;;;;1.59;89.73;98755.88;6156315;23;20017;-90
2021/12/09 01:15:30;;;;;;;34.65;22.25;;;;;;;1.63;90.24;98762.06;6180469;23;20044;-90
2021/12/09 01:17:55;;;;;;;31.85;21.75;;;;;;;1.64;88.99;98747.25;6156041;23;20017;-90
2021/12/09 01:20:25;;;;;;;33.40;21.67;;;;;;;1.70;88.86;98751.06;6156384;23;20035;-90
2021/12/09 01:22:55;;;;;;;35.25;22.63;;;;;;;1.72;89.34;98759.63;6181094;23;20071;-89
2021/12/09 01:25:21;;;;;;;35.10;21.80;;;;;;;1.63;89.77;98756.59;6156130;23;20051;-90
2021/12/09 01:27:49;;;;;;;39.90;24.15;;;;;;;1.67;90.24;98768.28;6155479;23;20005;-90
2021/12/09 01:30:18;;;;;;;37.53;24.02;;;;;;;1.56;90.78;98755.91;6156661;23;20013;-89
2021/12/09 01:32:51;;;;;;;39.78;24.42;;;;;;;1.58;91.17;98759.03;6156194;23;20021;-89
2021/12/09 01:35:35;;;;;;;39.15;25.40;;;;;;;1.66;91.82;98766.72;6132229;23;20025;-89
2021/12/09 01:38:09;;;;;;;42.75;26.85;;;;;;;1.64;91.90;98766.38;6131862;23;20192;-90
2021/12/09 01:40:35;;;;;;;42.65;25.60;;;;;;;1.63;91.99;98751.16;6157342;23;20409;-90
2021/12/09 01:43:01;;;;;;;45.00;26.33;;;;;;;1.56;91.86;98734.06;6155992;23;20095;-88
2021/12/09 01:45:27;;;;;;;41.83;26.55;;;;;;;1.54;92.07;98733.69;6180894;23;20080;-88
2021/12/09 01:47:53;;;;;;;42.28;27.00;;;;;;;1.54;92.33;98734.44;6155917;23;20013;-88
2021/12/09 01:50:18;;;;;;;41.25;25.98;;;;;;;1.52;92.67;98744.25;6155856;23;20009;-87
2021/12/09 01:52:44;;;;;;;43.20;26.30;;;;;;;1.49;92.60;98736.88;6155560;23;20012;-89
2021/12/09 01:55:12;;;;;;;44.42;27.33;;;;;;;1.40;92.45;98727.22;6156368;23;20020;-89
2021/12/09 01:57:38;;;;;;;41.53;25.92;;;;;;;1.43;92.87;98747.47;6131551;23;20083;-88
2021/12/09 02:00:11;;;;;;;45.60;27.75;;;;;;;1.48;93.30;98748.97;6131454;23;20463;-89
2021/12/09 02:03:00;;;;;;;46.05;27.40;;;;;;;1.45;92.98;98725.22;6165362;23;20021;-90
2021/12/09 02:05:27;;;;;;;43.60;26.55;;;;;;;1.42;92.92;98730.28;6211228;23;20463;-91
2021/12/09 02:07:52;;;;;;;48.30;28.80;;;;;;;1.42;93.61;98745.16;6185263;23;20406;-90
2021/12/09 02:10:19;;;;;;;44.55;28.10;;;;;;;1.37;94.12;98732.72;6212792;23;20024;-90
2021/12/09 02:12:50;;;;;;;45.88;28.20;;;;;;;1.37;94.29;98738.97;6187692;23;20036;-90
2021/12/09 02:15:17;;;;;;;48.30;28.17;;;;;;;1.38;94.22;98740.47;6213404;23;20076;-89
2021/12/09 02:17:43;;;;;;;46.90;28.27;;;;;;;1.32;95.40;98749.53;6162546;23;20012;-91
2021/12/09 02:20:10;;;;;;;50.22;29.40;;;;;;;1.26;95.82;98753.88;6188328;23;20043;-90
2021/12/09 02:22:36;;;;;;;45.83;28.20;;;;;;;1.20;96.64;98744.59;6212978;23;20009;-91
2021/12/09 02:25:03;;;;;;;45.05;29.20;;;;;;;1.20;97.00;98742.63;6187877;23;20058;-91
2021/12/09 02:27:29;;;;;;;51.65;29.55;;;;;;;1.13;97.13;98729.06;6162590;23;20015;-90
2021/12/09 02:29:55;;;;;;;49.05;30.33;;;;;;;1.13;98.14;98739.22;6162792;23;20009;-90
2021/12/09 02:32:21;;;;;;;47.47;29.52;;;;;;;1.01;98.55;98726.06;6187587;23;20501;-91
2021/12/09 02:34:47;;;;;;;49.85;29.92;;;;;;;1.00;99.18;98729.97;6162554;23;20023;-90
2021/12/09 02:37:13;;;;;;;49.45;29.80;;;;;;;1.02;99.83;98733.06;6187665;23;20009;-88
2021/12/09 02:39:40;;;;;;;52.28;30.90;;;;;;;1.10;99.76;98750.91;6163557;23;20059;-88
2021/12/09 02:42:06;;;;;;;47.95;29.98;;;;;;;1.08;99.84;98743.16;6162399;23;20119;-87
2021/12/09 02:44:32;;;;;;;50.53;30.42;;;;;;;0.94;100.00;98719.47;6162317;23;20051;-88
2021/12/09 02:46:57;;;;;;;50.40;29.98;;;;;;;1.00;100.00;98713.59;6211855;23;20047;-88
2021/12/09 02:49:29;;;;;;;52.45;29.67;;;;;;;1.08;100.00;98725.97;6187223;23;20017;-88
2021/12/09 02:51:55;;;;;;;49.55;29.75;;;;;;;1.07;99.52;98724.44;6186149;23;20355;-88
2021/12/09 02:54:22;;;;;;;50.53;30.10;;;;;;;1.05;99.96;98726.81;6186836;23;20009;-88
2021/12/09 02:56:51;;;;;;;49.65;29.65;;;;;;;1.04;100.00;98725.25;6187192;23;20083;-88
2021/12/09 02:59:16;;;;;;;48.25;29.45;;;;;;;0.99;100.00;98725.69;6162241;23;20035;-89
2021/12/09 03:02:06;;;;;;;51.35;30.77;;;;;;;0.94;100.00;98722.19;6162021;23;20347;-88
2021/12/09 03:04:48;;;;;;;51.28;30.45;;;;;;;0.94;100.00;98727.66;6141603;23;20016;-88
2021/12/09 03:07:35;;;;;;;50.15;29.15;;;;;;;0.84;100.00;98712.16;6163356;23;20012;-88
2021/12/09 03:10:19;;;;;;;52.45;28.98;;;;;;;0.90;100.00;98699.63;6137673;23;20103;-88
2021/12/09 03:12:50;;;;;;;47.42;28.95;;;;;;;0.86;100.00;98677.03;6162464;23;20376;-88
2021/12/09 03:15:16;;;;;;;51.33;29.10;;;;;;;0.81;100.00;98666.56;6162579;23;20399;-90
2021/12/09 03:17:43;;;;;;;51.13;30.55;;;;;;;0.82;100.00;98670.06;6186811;23;20334;-90
2021/12/09 03:20:11;;;;;;;48.70;29.77;;;;;;;0.87;100.00;98684.06;6187782;23;20040;-91
2021/12/09 03:22:37;;;;;;;45.35;28.75;;;;;;;0.88;100.00;98691.06;6137657;23;20071;-91
2021/12/09 03:25:05;;;;;;;50.95;30.10;;;;;;;0.75;100.00;98670.13;6162636;23;20447;-91
2021/12/09 03:27:31;;;;;;;51.42;29.88;;;;;;;0.80;100.00;98684.13;6161908;23;20004;-90
2021/12/09 03:29:56;;;;;;;48.40;29.45;;;;;;;0.80;100.00;98672.44;6137538;23;20032;-91
2021/12/09 03:32:23;;;;;;;50.30;30.23;;;;;;;0.74;100.00;98647.53;6138017;23;20442;-90
2021/12/09 03:34:49;;;;;;;49.20;29.67;;;;;;;0.69;100.00;98642.50;6186938;23;20322;-91
2021/12/09 03:37:21;;;;;;;51.55;30.75;;;;;;;0.73;100.00;98673.25;6162131;23;20024;-90
2021/12/09 03:39:48;;;;;;;50.97;31.35;;;;;;;0.73;100.00;98670.53;6161387;23;20028;-90
2021/12/09 03:42:17;;;;;;;51.97;30.67;;;;;;;0.75;100.00;98670.13;6186146;23;20004;-90
2021/12/09 03:44:43;;;;;;;54.35;31.58;;;;;;;0.75;100.00;98659.22;6135604;23;20462;-90
2021/12/09 03:47:12;;;;;;;50.65;30.60;;;;;;;0.83;100.00;98634.19;6159492;23;20108;-91
2021/12/09 03:49:38;;;;;;;47.83;29.88;;;;;;;0.69;100.00;98639.00;6136005;23;20362;-91
2021/12/09 03:52:04;;;;;;;48.83;29.52;;;;;;;0.63;100.00;98629.69;6137210;23;20016;-91
2021/12/09 03:54:30;;;;;;;48.22;28.67;;;;;;;0.64;100.00;98647.63;6162691;23;20013;-90
2021/12/09 03:56:56;;;;;;;48.50;30.02;;;;;;;0.78;100.00;98674.78;6137871;23;20041;-91
2021/12/09 03:59:22;;;;;;;49.33;29.45;;;;;;;0.78;100.00;98648.25;6137472;23;20009;-90
2021/12/09 04:01:48;;;;;;;49.80;28.90;;;;;;;0.70;100.00;98648.72;6186173;23;20000;-91
2021/12/09 04:04:14;;;;;;;50.97;29.90;;;;;;;0.78;100.00;98653.72;6161535;23;20013;-90
2021/12/09 04:06:40;;;;;;;50.90;29.45;;;;;;;0.80;100.00;98640.47;6187165;23;20012;-92
2021/12/09 04:09:09;;;;;;;49.30;29.83;;;;;;;0.78;100.00;98631.88;6161631;23;20043;-91
2021/12/09 04:11:35;;;;;;;47.40;28.35;;;;;;;0.79;100.00;98633.44;6137222;23;20010;-90
2021/12/09 04:14:00;;;;;;;48.00;29.05;;;;;;;0.73;100.00;98618.66;6161273;23;20020;-90
2021/12/09 04:16:27;;;;;;;48.33;28.77;;;;;;;0.76;100.00;98622.56;6136545;23;20021;-91
2021/12/09 04:18:52;;;;;;;46.53;27.67;;;;;;;0.72;100.00;98611.69;6161761;23;20008;-92
2021/12/09 04:21:18;;;;;;;49.33;29.33;;;;;;;0.62;100.00;98588.00;6186890;23;20012;-91
2021/12/09 04:23:44;;;;;;;46.10;27.40;;;;;;;0.72;100.00;98611.69;6137103;23;20016;-91
2021/12/09 04:26:09;;;;;;;46.30;26.98;;;;;;;0.68;100.00;98594.56;6136978;23;20170;-92
2021/12/09 04:28:36;;;;;;;43.53;28.20;;;;;;;0.79;100.00;98617.06;6162075;23;20013;-91
2021/12/09 04:31:02;;;;;;;43.17;27.05;;;;;;;0.73;100.00;98610.47;6136971;23;20355;-92
2021/12/09 04:33:29;;;;;;;42.97;27.13;;;;;;;0.89;100.00;98621.63;6162099;23;20004;-91
2021/12/09 04:35:55;;;;;;;44.92;27.30;;;;;;;0.87;100.00;98612.31;6160770;23;20028;-90
2021/12/09 04:38:21;;;;;;;45.28;27.80;;;;;;;0.67;100.00;98571.19;6161267;23;20025;-91
2021/12/09 04:40:47;;;;;;;43.33;27.27;;;;;;;0.85;100.00;98581.91;6136334;23;20059;-91
2021/12/09 04:43:13;;;;;;;43.13;26.63;;;;;;;0.78;100.00;98550.00;6136442;23;20066;-90
2021/12/09 04:45:40;;;;;;;43.72;26.38;;;;;;;0.85;100.00;98569.03;6136360;23;20036;-90
2021/12/09 04:48:06;;;;;;;44.90;26.13;;;;;;;0.83;100.00;98554.25;6161037;23;20012;-91
2021/12/09 04:50:33;;;;;;;41.90;26.17;;;;;;;0.91;100.00;98570.13;6136623;23;20027;-91
2021/12/09 04:52:59;;;;;;;42.97;27.15;;;;;;;0.93;100.00;98586.13;6160988;23;20091;-91
2021/12/09 04:55:24;;;;;;;41.25;26.42;;;;;;;0.84;100.00;98564.75;6161251;23;20458;-92
2021/12/09 04:57:50;;;;;;;43.42;25.42;;;;;;;0.73;100.00;98563.34;6186258;23;20450;-92
2021/12/09 05:00:19;;;;;;;44.50;26.15;;;;;;;0.75;100.00;98556.28;6161941;23;20474;-92
2021/12/09 05:05:23;;;;;;;42.97;26.08;;;;;;;0.90;100.00;98578.72;6180734;23;20039;-90
2021/12/09 05:07:49;;;;;;;39.47;23.80;;;;;;;0.83;100.00;98582.31;6131932;23;20013;-91
2021/12/09 05:10:15;;;;;;;39.15;24.08;;;;;;;0.85;100.00;98609.97;6157049;23;20012;-91
2021/12/09 05:12:41;;;;;;;39.00;24.30;;;;;;;0.82;100.00;98599.88;6156719;23;20432;-91
2021/12/09 05:15:08;;;;;;;45.35;25.98;;;;;;;0.87;100.00;98590.47;6155950;23;20022;-90
2021/12/09 05:17:33;;;;;;;42.03;26.17;;;;;;;0.78;100.00;98588.22;6180588;23;20011;-89
2021/12/09 05:19:59;;;;;;;38.10;24.50;;;;;;;0.82;100.00;98593.63;6131434;23;20009;-90
2021/12/09 05:22:25;;;;;;;39.78;23.92;;;;;;;0.90;100.00;98606.81;6181195;23;20016;-89
2021/12/09 05:24:52;;;;;;;40.85;24.27;;;;;;;0.90;100.00;98595.88;6130911;23;20393;-89
2021/12/09 05:27:18;;;;;;;41.35;25.92;;;;;;;0.87;100.00;98591.25;6131529;23;20103;-89
2021/12/09 05:29:46;;;;;;;40.92;24.90;;;;;;;0.90;100.00;98595.88;6155548;23;20454;-89
2021/12/09 05:32:13;;;;;;;41.75;25.67;;;;;;;0.85;100.00;98590.84;6156236;23;20096;-92
2021/12/09 05:34:48;;;;;;;38.80;24.85;;;;;;;0.80;100.00;98596.78;6131154;23;20083;-92
2021/12/09 05:37:19;;;;;;;41.53;25.92;;;;;;;0.87;100.00;98612.31;6181399;23;20013;-92
2021/12/09 05:39:45;;;;;;;39.88;23.75;;;;;;;0.78;100.00;98610.06;6156485;23;20412;-90
2021/12/09 05:42:12;;;;;;;38.08;23.35;;;;;;;0.83;100.00;98601.41;6131610;23;20025;-90
2021/12/09 05:44:38;;;;;;;36.55;23.52;;;;;;;0.87;100.00;98595.91;6156141;23;20017;-92
2021/12/09 05:47:05;;;;;;;36.67;23.05;;;;;;;0.86;100.00;98572.53;6156353;23;20017;-92
2021/12/09 05:49:32;;;;;;;38.15;23.85;;;;;;;0.87;100.00;98591.25;6156191;23;20131;-92
2021/12/09 05:51:58;;;;;;;35.08;21.98;;;;;;;0.88;100.00;98592.78;6181034;23;20012;-90
2021/12/09 05:54:24;;;;;;;36.17;22.73;;;;;;;0.86;100.00;98589.69;6155240;23;20445;-90
2021/12/09 05:56:50;;;;;;;33.13;20.80;;;;;;;0.89;100.00;98588.88;6156173;23;20017;-91
2021/12/09 05:59:16;;;;;;;37.40;22.27;;;;;;;0.92;100.00;98603.66;6132447;23;20427;-90
2021/12/09 06:01:41;;;;;;;33.65;21.48;;;;;;;0.74;100.00;98582.03;6131640;23;20021;-90
2021/12/09 06:04:08;;;;;;;33.83;22.17;;;;;;;0.85;100.00;98599.03;6136401;23;20393;-90
2021/12/09 06:06:34;;;;;;;33.88;22.13;;;;;;;0.91;100.00;98616.53;6137291;23;20358;-90
2021/12/09 06:09:00;;;;;;;35.03;21.90;;;;;;;0.85;100.00;98599.03;6136615;23;20330;-91
2021/12/09 06:11:26;;;;;;;33.53;21.65;;;;;;;0.85;100.00;98607.22;6139595;23;20017;-91
2021/12/09 06:13:53;;;;;;;33.25;20.80;;;;;;;0.80;100.00;98591.31;6186480;23;20012;-92
2021/12/09 06:16:19;;;;;;;34.05;21.45;;;;;;;0.84;100.00;98602.97;6187135;23;20028;-91
2021/12/09 06:18:44;;;;;;;31.77;21.13;;;;;;;0.79;100.00;98602.63;6137476;23;20090;-91
2021/12/09 06:21:10;;;;;;;32.65;20.02;;;;;;;0.89;100.00;98599.03;6136511;23;20419;-92
2021/12/09 06:23:36;;;;;;;33.40;21.50;;;;;;;0.89;100.00;98588.13;6161200;23;20354;-94
2021/12/09 06:26:02;;;;;;;34.65;21.95;;;;;;;0.90;100.00;98576.78;6138461;23;20024;-90
2021/12/09 06:28:28;;;;;;;34.92;21.75;;;;;;;0.85;100.00;98587.38;6162840;23;20016;-91
2021/12/09 06:30:53;;;;;;;35.17;21.50;;;;;;;0.81;100.00;98581.19;6162264;23;20470;-91
2021/12/09 06:33:19;;;;;;;33.92;21.00;;;;;;;0.78;100.00;98582.75;6187573;23;20470;-91
2021/12/09 06:35:44;;;;;;;33.17;20.77;;;;;;;0.73;100.00;98558.63;6162616;23;20016;-91
2021/12/09 06:38:16;;;;;;;34.80;19.02;;;;;;;0.77;100.00;98570.28;6137755;23;20387;-91
2021/12/09 06:40:42;;;;;;;28.75;18.40;;;;;;;0.63;100.00;98562.25;6187674;23;20013;-91
2021/12/09 06:43:08;;;;;;;32.50;19.38;;;;;;;0.75;100.00;98589.03;6138215;23;20039;-92
2021/12/09 06:45:34;;;;;;;34.45;19.98;;;;;;;0.81;100.00;98595.56;6162418;23;20008;-94
2021/12/09 06:48:00;;;;;;;32.20;19.05;;;;;;;0.80;100.00;98607.69;6187464;23;20008;-91
2021/12/09 06:50:25;;;;;;;30.92;18.90;;;;;;;0.62;100.00;98568.13;6163697;23;20054;-93
2021/12/09 06:52:51;;;;;;;31.15;18.42;;;;;;;0.63;100.00;98565.00;6141421;23;20012;-94
2021/12/09 06:55:18;;;;;;;28.98;18.50;;;;;;;0.62;100.00;98568.13;6140236;23;20023;-93
2021/12/09 06:57:44;;;;;;;33.13;19.75;;;;;;;0.73;100.00;98591.38;6142470;23;20027;-94
2021/12/09 07:00:18;;;;;;;32.67;19.50;;;;;;;0.49;100.00;98570.56;6169130;23;20016;-94
2021/12/09 07:02:45;;;;;;;31.15;18.30;;;;;;;0.47;100.00;98567.50;6140214;23;20024;-94
2021/12/09 07:05:11;;;;;;;28.50;17.33;;;;;;;0.70;100.00;98597.66;6161984;23;20020;-94
2021/12/09 07:07:38;;;;;;;29.45;18.27;;;;;;;0.54;100.00;98563.91;6135311;23;20016;-86
2021/12/09 07:10:06;;;;;;;31.23;18.88;;;;;;;0.55;100.00;98568.19;6183226;23;20413;-86
2021/12/09 07:12:34;;;;;;;30.67;18.52;;;;;;;0.71;100.00;98582.84;6184205;23;20013;-86
2021/12/09 07:15:01;;;;;;;30.90;17.50;;;;;;;0.61;100.00;98559.16;6183639;23;20277;-87
2021/12/09 07:17:26;;;;;;;30.17;18.75;;;;;;;0.78;100.00;98593.66;6184194;23;20427;-86
2021/12/09 07:19:52;;;;;;;27.30;16.73;;;;;;;0.82;100.00;98588.94;6183587;23;20055;-86
2021/12/09 07:22:17;;;;;;;29.30;17.10;;;;;;;0.69;100.00;98587.91;6183743;23;20454;-86
2021/12/09 07:24:43;;;;;;;27.45;16.45;;;;;;;0.66;100.00;98596.91;6182799;23;20494;-92
2021/12/09 07:27:09;;;;;;;29.58;16.75;;;;;;;0.67;100.00;98592.25;6133661;23;20019;-93
2021/12/09 07:29:34;;;;;;;26.98;16.15;;;;;;;0.88;100.00;98613.84;6134816;23;20114;-93
2021/12/09 07:32:00;;;;;;;28.30;16.27;;;;;;;0.86;100.00;98611.53;6134362;23;20013;-93
2021/12/09 07:34:25;;;;;;;26.27;15.82;;;;;;;0.88;100.00;98611.91;6134314;23;20553;-93
2021/12/09 07:36:51;;;;;;;27.30;16.52;;;;;;;0.89;100.00;98627.09;6134686;23;20012;-93
2021/12/09 07:39:16;;;;;;;29.67;16.45;;;;;;;0.98;100.00;98636.75;6159035;23;20498;-94
2021/12/09 07:41:42;;;;;;;27.48;16.25;;;;;;;0.99;100.00;98619.19;6134428;23;20016;-92
2021/12/09 07:44:08;;;;;;;26.13;15.50;;;;;;;1.08;100.00;98636.66;6109334;23;20021;-86
2021/12/09 07:46:34;;;;;;;29.92;18.38;;;;;;;0.92;100.00;98629.03;6184527;23;20377;-93
2021/12/09 07:49:01;;;;;;;29.00;17.67;;;;;;;1.01;100.00;98655.06;6133227;23;20017;-93
2021/12/09 07:51:26;;;;;;;32.90;21.33;;;;;;;1.03;100.00;98649.97;6133461;23;20039;-93
2021/12/09 07:53:52;;;;;;;36.60;22.05;;;;;;;0.99;100.00;98662.88;6133318;23;20439;-93
2021/12/09 07:56:18;;;;;;;34.00;21.02;;;;;;;0.94;100.00;98664.09;6182978;23;20016;-92
2021/12/09 07:58:43;;;;;;;30.25;18.10;;;;;;;0.91;100.00;98668.41;6182967;23;20005;-93
2021/12/09 08:01:09;;;;;;;29.42;18.42;;;;;;;1.02;100.00;98686.63;6157711;23;20013;-93
2021/12/09 08:03:34;;;;;;;32.10;20.52;;;;;;;0.94;100.00;98675.78;6157609;23;20017;-87
2021/12/09 08:06:00;;;;;;;30.42;19.55;;;;;;;1.02;100.00;98694.81;6157074;23;20017;-87
2021/12/09 08:08:26;;;;;;;33.63;19.80;;;;;;;1.03;100.00;98696.38;6156868;23;20100;-88
2021/12/09 08:10:51;;;;;;;31.77;17.70;;;;;;;0.97;100.00;98695.28;6156770;23;20099;-88
2021/12/09 08:13:17;;;;;;;31.10;18.55;;;;;;;0.89;100.00;98698.06;6156706;23;20083;-87
2021/12/09 08:15:48;;;;;;;30.08;19.23;;;;;;;0.82;100.00;98698.13;6157492;23;20024;-87
2021/12/09 08:20:49;;;;;;;33.10;21.13;;;;;;;0.87;100.00;98721.50;6158343;23;20048;-88
2021/12/09 08:23:14;;;;;;;34.35;20.27;;;;;;;0.83;100.00;98727.00;6181715;23;20013;-88
2021/12/09 08:25:41;;;;;;;35.47;20.70;;;;;;;0.77;100.00;98728.59;6157127;23;20013;-87
2021/12/09 08:28:07;;;;;;;33.78;20.73;;;;;;;0.82;100.00;98725.44;6156211;23;20004;-87
2021/12/09 08:30:33;;;;;;;35.60;21.83;;;;;;;0.85;100.00;98734.78;6156841;23;20028;-87
2021/12/09 08:32:59;;;;;;;37.83;22.20;;;;;;;0.79;100.00;98734.44;6156732;23;20013;-87
2021/12/09 08:35:24;;;;;;;38.88;21.77;;;;;;;0.65;100.00;98720.13;6132549;23;20137;-87
2021/12/09 08:37:51;;;;;;;36.38;21.85;;;;;;;0.76;100.00;98732.50;6157094;23;20461;-88
2021/12/09 08:40:17;;;;;;;36.92;21.92;;;;;;;0.61;100.00;98716.66;6132351;23;20020;-88
2021/12/09 08:42:43;;;;;;;35.83;20.33;;;;;;;0.78;100.00;98749.25;6183453;23;20017;-94
2021/12/09 08:45:11;;;;;;;35.65;20.90;;;;;;;0.77;100.00;98749.69;6158403;23;20027;-94
2021/12/09 08:47:41;;;;;;;36.40;22.60;;;;;;;0.56;100.00;98720.59;6159437;23;20037;-94
2021/12/09 08:50:10;;;;;;;35.72;21.15;;;;;;;0.71;100.00;98745.81;6133952;23;20021;-93
2021/12/09 08:52:36;;;;;;;36.10;20.27;;;;;;;0.70;100.00;98736.06;6137532;23;20012;-96
2021/12/09 08:55:03;;;;;;;36.33;21.90;;;;;;;0.78;100.00;98741.06;6133689;23;20009;-90
2021/12/09 08:57:31;;;;;;;33.22;20.10;;;;;;;0.69;100.00;98735.28;6156401;23;20009;-90
2021/12/09 08:59:56;;;;;;;31.75;20.27;;;;;;;0.66;100.00;98735.31;6156545;23;20031;-89
2021/12/09 09:02:22;;;;;;;33.25;20.20;;;;;;;0.78;100.00;98751.97;6156291;23;20048;-88
2021/12/09 09:04:47;;;;;;;32.38;19.23;;;;;;;0.73;100.00;98744.22;6181113;23;20134;-88
2021/12/09 09:07:13;;;;;;;31.08;18.45;;;;;;;0.78;100.00;98745.75;6154184;23;20040;-88
2021/12/09 09:09:41;;;;;;;28.42;17.33;;;;;;;0.65;100.00;98731.81;6154298;23;20020;-89
2021/12/09 09:12:10;;;;;;;27.70;17.08;;;;;;;0.69;100.00;98737.25;6155237;23;20009;-89
2021/12/09 09:14:36;;;;;;;30.00;16.75;;;;;;;0.57;100.00;98726.84;6180716;23;20017;-88
2021/12/09 09:17:03;;;;;;;28.25;17.75;;;;;;;0.54;100.00;98714.75;6155942;23;20109;-88
2021/12/09 09:19:28;;;;;;;29.67;17.92;;;;;;;0.59;100.00;98711.59;6156002;23;20140;-87
2021/12/09 09:21:55;;;;;;;29.90;18.88;;;;;;;0.55;100.00;98705.41;6181123;23;20100;-89
2021/12/09 09:24:20;;;;;;;38.80;21.38;;;;;;;0.53;100.00;98693.34;6156503;23;20104;-88
2021/12/09 09:26:46;;;;;;;39.60;22.23;;;;;;;0.58;100.00;98693.66;6181355;23;20033;-88
2021/12/09 09:29:12;;;;;;;50.10;25.58;;;;;;;0.54;100.00;98692.91;6180929;23;20107;-88
2021/12/09 09:31:40;;;;;;;48.63;26.90;;;;;;;0.61;100.00;98692.09;6156514;23;20443;-87
2021/12/09 09:34:07;;;;;;;43.67;23.65;;;;;;;0.58;100.00;98681.97;6156559;23;20016;-87
2021/12/09 09:36:33;;;;;;;39.80;23.08;;;;;;;0.62;100.00;98680.78;6181569;23;20024;-88
2021/12/09 09:39:16;;;;;;;36.03;21.63;;;;;;;0.55;100.00;98658.22;6156018;23;20009;-87
2021/12/09 09:41:42;;;;;;;30.58;17.88;;;;;;;0.52;100.00;98645.41;6159139;23;20024;-86
2021/12/09 09:44:14;;;;;;;26.70;16.05;;;;;;;0.46;100.00;98636.88;6180701;23;20013;-87
2021/12/09 09:46:40;;;;;;;27.88;17.00;;;;;;;0.50;100.00;98645.00;6181726;23;20021;-86
2021/12/09 09:49:06;;;;;;;27.23;15.93;;;;;;;0.58;100.00;98650.00;6155899;23;20013;-86
2021/12/09 09:51:33;;;;;;;25.25;16.35;;;;;;;0.58;100.00;98650.00;6181108;23;20025;-85
2021/12/09 09:53:59;;;;;;;24.00;15.20;;;;;;;0.57;100.00;98648.44;6156137;23;20084;-85
2021/12/09 09:56:25;;;;;;;22.70;14.10;;;;;;;0.53;100.00;98647.72;6181490;23;20047;-85
2021/12/09 09:58:56;;;;;;;22.10;13.75;;;;;;;0.56;100.00;98641.47;6182327;23;20013;-89
2021/12/09 10:01:25;;;;;;;22.15;13.48;;;;;;;0.51;100.00;98644.63;6182876;23;20435;-88
2021/12/09 10:03:58;;;;;;;21.15;13.10;;;;;;;0.60;100.00;98664.03;6209155;23;20044;-87
2021/12/09 10:06:24;;;;;;;18.58;12.40;;;;;;;0.64;100.00;98662.06;6188072;23;20012;-88
2021/12/09 10:08:49;;;;;;;20.85;12.68;;;;;;;0.63;100.00;98663.22;6185841;23;20019;-88
2021/12/09 10:11:15;;;;;;;18.60;12.00;;;;;;;0.67;100.00;98661.25;6186028;23;20016;-88
2021/12/09 10:13:42;;;;;;;22.35;13.63;;;;;;;0.68;100.00;98662.81;6186405;23;20399;-88
2021/12/09 10:16:17;;;;;;;21.27;12.95;;;;;;;0.71;100.00;98659.25;6210297;23;20008;-88
2021/12/09 10:18:45;;;;;;;19.23;12.85;;;;;;;0.71;100.00;98653.78;6161106;23;20044;-88
2021/12/09 10:21:14;;;;;;;19.52;13.10;;;;;;;0.74;100.00;98655.72;6183413;23;20071;-88
2021/12/09 10:23:46;;;;;;;19.33;12.25;;;;;;;0.75;100.00;98659.22;6160305;23;20013;-88
2021/12/09 10:26:23;;;;;;;21.90;12.98;;;;;;;0.79;100.00;98658.00;6185933;23;20035;-87
2021/12/09 10:28:55;;;;;;;19.63;12.95;;;;;;;0.76;100.00;98645.19;6185912;23;20438;-88
2021/12/09 10:31:27;;;;;;;21.45;13.18;;;;;;;0.74;100.00;98631.16;6187570;23;20382;-88
2021/12/09 10:34:34;;;;;;;21.90;13.50;;;;;;;0.84;100.00;98652.13;6188124;23;20446;-88
2021/12/09 10:37:06;;;;;;;22.52;13.27;;;;;;;0.79;100.00;98646.31;6214141;23;20025;-83
2021/12/09 10:39:36;;;;;;;45.83;15.70;;;;;;;0.82;100.00;98648.22;6214023;23;20012;-83
2021/12/09 10:42:06;;;;;;;37.90;18.75;;;;;;;0.74;100.00;98642.06;6214356;23;20019;-83
2021/12/09 10:44:34;;;;;;;28.65;19.33;;;;;;;0.80;100.00;98643.19;6213775;23;20012;-83
2021/12/09 10:47:11;;;;;;;41.40;22.77;;;;;;;0.77;100.00;98643.22;6214270;23;20320;-83
2021/12/09 10:50:05;;;;;;;39.67;19.25;;;;;;;0.73;100.00;98645.97;6186637;23;20091;-83
2021/12/09 10:52:41;;;;;;;33.15;23.17;;;;;;;0.62;100.00;98634.38;6165405;23;20023;-83
2021/12/09 10:55:14;;;;;;;37.63;27.85;;;;;;;0.63;100.00;98637.88;6188634;23;20434;-84
2021/12/09 10:57:40;;;;;;;27.88;19.13;;;;;;;0.65;100.00;98651.91;6188037;23;20013;-83
2021/12/09 11:00:26;;;;;;;29.00;19.15;;;;;;;0.67;100.00;98644.88;6161963;23;20012;-84
2021/12/09 11:03:06;;;;;;;27.58;16.70;;;;;;;0.65;100.00;98644.47;6213813;23;20043;-84
2021/12/09 11:05:36;;;;;;;22.90;15.73;;;;;;;0.62;100.00;98642.56;6214254;23;20040;-84
2021/12/09 11:08:18;;;;;;;24.25;15.75;;;;;;;0.62;100.00;98642.56;6162772;23;20015;-84
2021/12/09 11:10:47;;;;;;;23.92;14.70;;;;;;;0.50;100.00;98628.66;6187352;23;20027;-84
2021/12/09 11:13:18;;;;;;;25.48;14.90;;;;;;;0.47;100.00;98633.75;6162969;23;20016;-87
2021/12/09 11:15:52;;;;;;;24.08;15.43;;;;;;;0.41;100.00;98629.09;6187756;23;20615;-84
2021/12/09 11:18:26;;;;;;;28.10;17.38;;;;;;;0.41;100.00;98623.66;6162835;23;20040;-83
2021/12/09 11:20:52;;;;;;;27.02;18.05;;;;;;;0.37;100.00;98615.50;6213756;23;20013;-84
2021/12/09 11:23:26;;;;;;;30.15;19.40;;;;;;;0.41;100.00;98616.25;6213641;23;20012;-84
2021/12/09 11:25:52;;;;;;;28.38;19.05;;;;;;;0.41;100.00;98620.94;6214011;23;20016;-84
2021/12/09 11:28:18;;;;;;;31.55;20.35;;;;;;;0.38;100.00;98619.00;6187294;23;20009;-83